createdAt,value
2018-01-10T00:01:36.498Z,8.50
2018-01-10T00:04:04.067Z,7.70
2018-01-10T00:06:31.523Z,7.60
2018-01-10T00:08:59.013Z,7.67
2018-01-10T00:11:26.465Z,8.07
2018-01-10T00:13:54.104Z,7.13
2018-01-10T00:16:21.561Z,7.93
2018-01-10T00:18:49.180Z,7.37
2018-01-10T00:21:16.787Z,7.40
2018-01-10T00:23:44.259Z,7.40
2018-01-10T00:26:11.721Z,7.80
2018-01-10T00:28:39.419Z,6.73
2018-01-10T00:31:06.949Z,7.40
2018-01-10T00:33:34.409Z,7.50
2018-01-10T00:36:01.874Z,7.60
2018-01-10T00:38:29.345Z,7.93
2018-01-10T00:40:56.798Z,7.93
2018-01-10T00:43:24.291Z,7.57
2018-01-10T00:45:51.764Z,7.07
2018-01-10T00:48:19.236Z,6.87
2018-01-10T00:50:46.955Z,7.43
2018-01-10T00:53:14.422Z,7.10
2018-01-10T00:55:41.897Z,7.40
2018-01-10T00:58:09.726Z,7.07
2018-01-10T01:00:37.360Z,6.97
2018-01-10T01:03:05.022Z,6.47
2018-01-10T01:05:33.237Z,6.97
2018-01-10T01:08:00.729Z,7.47
2018-01-10T01:10:28.362Z,7.13
2018-01-10T01:12:55.837Z,6.47
2018-01-10T01:15:23.309Z,6.70
2018-01-10T01:17:50.769Z,6.50
2018-01-10T01:20:18.445Z,7.40
2018-01-10T01:22:45.973Z,6.67
2018-01-10T01:25:13.432Z,6.67
2018-01-10T01:27:41.015Z,6.40
2018-01-10T01:30:08.470Z,7.00
2018-01-10T01:32:36.104Z,6.33
2018-01-10T01:35:03.682Z,6.33
2018-01-10T01:37:31.149Z,6.63
2018-01-10T01:39:58.812Z,6.70
2018-01-10T01:42:26.297Z,6.67
2018-01-10T01:44:54.748Z,6.70
2018-01-10T01:47:22.370Z,6.17
2018-01-10T01:49:50.019Z,6.47
2018-01-10T01:52:17.613Z,6.53
2018-01-10T01:54:45.084Z,6.17
2018-01-10T01:57:12.644Z,6.80
2018-01-10T01:59:40.289Z,6.73
2018-01-10T02:02:07.736Z,6.30
2018-01-10T02:04:35.218Z,6.90
2018-01-10T02:07:02.670Z,6.43
2018-01-10T02:09:30.145Z,6.27
2018-01-10T02:11:57.838Z,6.10
2018-01-10T02:14:25.637Z,6.33
2018-01-10T02:16:53.105Z,6.00
2018-01-10T02:19:20.608Z,6.40
2018-01-10T02:21:48.064Z,5.83
2018-01-10T02:24:15.606Z,6.87
2018-01-10T02:26:43.250Z,6.10
2018-01-10T02:29:10.744Z,6.47
2018-01-10T02:31:38.180Z,6.40
2018-01-10T02:34:05.662Z,6.30
2018-01-10T02:36:33.108Z,5.97
2018-01-10T02:39:01.350Z,6.70
2018-01-10T02:41:28.844Z,6.40
2018-01-10T02:43:56.365Z,6.37
2018-01-10T02:46:23.829Z,5.97
2018-01-10T02:48:51.285Z,5.80
2018-01-10T02:51:18.741Z,6.27
2018-01-10T02:53:46.408Z,6.10
2018-01-10T02:56:13.862Z,6.33
2018-01-10T02:58:41.605Z,6.47
2018-01-10T03:01:09.232Z,6.17
2018-01-10T03:03:36.768Z,5.90
2018-01-10T03:06:04.205Z,5.63
2018-01-10T03:08:31.676Z,6.17
2018-01-10T03:10:59.150Z,5.83
2018-01-10T03:13:26.935Z,6.33
2018-01-10T03:15:54.559Z,6.50
2018-01-10T03:18:22.137Z,6.03
2018-01-10T03:20:49.596Z,5.90
2018-01-10T03:23:17.297Z,5.87
2018-01-10T03:25:44.746Z,6.37
2018-01-10T03:28:12.284Z,6.23
2018-01-10T03:30:39.742Z,6.50
2018-01-10T03:33:07.232Z,5.60
2018-01-10T03:35:34.684Z,6.03
2018-01-10T03:38:02.337Z,6.37
2018-01-10T03:40:29.786Z,6.47
2018-01-10T03:42:57.249Z,5.53
2018-01-10T03:45:24.708Z,5.87
2018-01-10T03:47:52.159Z,5.67
2018-01-10T03:50:23.539Z,6.10
2018-01-10T03:52:51.084Z,6.13
2018-01-10T03:55:18.561Z,5.67
2018-01-10T03:57:46.021Z,6.00
2018-01-10T04:00:13.480Z,5.60
2018-01-10T04:02:40.932Z,5.70
2018-01-10T04:05:08.424Z,6.17
2018-01-10T04:07:35.914Z,5.57
2018-01-10T04:10:03.402Z,5.23
2018-01-10T04:12:30.994Z,6.03
2018-01-10T04:14:58.438Z,6.33
2018-01-10T04:17:25.897Z,5.67
2018-01-10T04:19:54.352Z,6.53
2018-01-10T04:22:21.810Z,5.50
2018-01-10T04:24:49.264Z,6.20
2018-01-10T04:27:17.522Z,6.10
2018-01-10T04:29:45.073Z,5.93
2018-01-10T04:32:13.324Z,6.27
2018-01-10T04:34:40.913Z,5.83
2018-01-10T04:37:08.429Z,5.37
2018-01-10T04:39:36.208Z,6.37
2018-01-10T04:42:03.666Z,6.10
2018-01-10T04:44:31.120Z,5.07
2018-01-10T04:46:58.562Z,5.17
2018-01-10T04:49:26.021Z,5.60
2018-01-10T04:51:53.478Z,5.07
2018-01-10T04:54:20.932Z,5.43
2018-01-10T04:56:48.435Z,5.80
2018-01-10T04:59:16.218Z,5.57
2018-01-10T05:01:43.685Z,5.40
2018-01-10T05:04:11.332Z,5.33
2018-01-10T05:06:38.909Z,5.40
2018-01-10T05:09:06.370Z,5.27
2018-01-10T05:11:33.995Z,5.30
2018-01-10T05:14:01.497Z,5.53
2018-01-10T05:16:29.080Z,5.70
2018-01-10T05:18:56.541Z,5.60
2018-01-10T05:21:23.992Z,5.00
2018-01-10T05:23:51.579Z,5.53
2018-01-10T05:26:19.200Z,5.23
2018-01-10T05:28:46.817Z,5.57
2018-01-10T05:31:14.281Z,6.27
2018-01-10T05:33:41.876Z,8.03
2018-01-10T05:36:09.330Z,9.23
2018-01-10T05:38:36.897Z,11.83
2018-01-10T05:41:04.383Z,13.50
2018-01-10T05:43:32.916Z,13.93
2018-01-10T05:46:00.389Z,13.17
2018-01-10T05:48:27.890Z,13.40
2018-01-10T05:50:55.480Z,12.97
2018-01-10T05:53:22.962Z,12.27
2018-01-10T05:55:50.429Z,12.20
2018-01-10T05:58:18.121Z,12.83
2018-01-10T06:00:46.357Z,12.03
2018-01-10T06:03:13.850Z,12.23
2018-01-10T06:05:41.335Z,11.33
2018-01-10T06:08:08.793Z,12.80
2018-01-10T06:10:36.494Z,11.73
2018-01-10T06:13:03.952Z,13.13
2018-01-10T06:15:31.715Z,12.05
2018-01-10T06:17:59.192Z,11.20
2018-01-10T06:20:26.673Z,10.50
2018-01-10T06:22:54.273Z,10.90
2018-01-10T06:25:21.873Z,11.20
2018-01-10T06:27:49.577Z,10.77
2018-01-10T06:30:17.082Z,10.13
2018-01-10T06:32:44.544Z,11.13
2018-01-10T06:35:12.044Z,10.67
2018-01-10T06:37:39.694Z,12.17
2018-01-10T06:40:07.165Z,13.50
2018-01-10T06:42:34.677Z,18.87
2018-01-10T06:45:02.386Z,19.60
2018-01-10T06:47:29.833Z,17.77
2018-01-10T06:49:57.523Z,16.87
2018-01-10T06:52:25.006Z,15.10
2018-01-10T06:54:52.584Z,15.60
2018-01-10T06:57:20.035Z,15.97
2018-01-10T06:59:47.499Z,14.10
2018-01-10T07:02:15.165Z,15.57
2018-01-10T07:04:42.625Z,16.33
2018-01-10T07:07:10.181Z,14.90
2018-01-10T07:09:37.820Z,16.47
2018-01-10T07:12:05.296Z,14.63
2018-01-10T07:14:32.750Z,13.63
2018-01-10T07:17:00.211Z,14.23
2018-01-10T07:19:27.676Z,14.00
2018-01-10T07:21:55.233Z,14.20
2018-01-10T07:24:22.788Z,14.90
2018-01-10T07:26:50.452Z,13.80
2018-01-10T07:29:17.952Z,14.20
2018-01-10T07:31:45.670Z,13.70
2018-01-10T07:34:13.133Z,13.30
2018-01-10T07:36:40.908Z,12.97
2018-01-10T07:39:08.543Z,14.37
2018-01-10T07:41:36.039Z,14.07
2018-01-10T07:44:03.582Z,13.80
2018-01-10T07:46:31.056Z,13.20
2018-01-10T07:48:58.520Z,13.27
2018-01-10T07:51:26.159Z,14.03
2018-01-10T07:53:53.621Z,12.90
2018-01-10T07:56:21.085Z,13.30
2018-01-10T07:58:48.574Z,12.43
2018-01-10T08:01:16.101Z,12.10
2018-01-10T08:03:43.571Z,12.43
2018-01-10T08:06:11.040Z,13.17
2018-01-10T08:08:38.778Z,13.17
2018-01-10T08:11:06.250Z,12.37
2018-01-10T08:13:33.724Z,11.90
2018-01-10T08:16:01.198Z,12.27
2018-01-10T08:18:28.812Z,12.33
2018-01-10T08:20:56.366Z,12.27
2018-01-10T08:23:23.837Z,12.17
2018-01-10T08:25:51.314Z,12.03
2018-01-10T08:28:19.078Z,12.30
2018-01-10T08:30:46.747Z,12.40
2018-01-10T08:33:14.293Z,11.60
2018-01-10T08:35:41.772Z,12.00
2018-01-10T08:38:09.513Z,12.10
2018-01-10T08:40:37.144Z,11.83
2018-01-10T08:43:04.735Z,11.07
2018-01-10T08:45:32.203Z,11.27
2018-01-10T08:47:59.810Z,11.63
2018-01-10T08:50:27.359Z,12.30
2018-01-10T08:52:54.808Z,12.27
2018-01-10T08:55:22.282Z,11.13
2018-01-10T08:57:49.740Z,10.73
2018-01-10T09:00:17.205Z,11.17
2018-01-10T09:02:44.705Z,11.63
2018-01-10T09:05:12.344Z,11.40
2018-01-10T09:07:39.924Z,11.57
2018-01-10T09:10:07.693Z,13.13
2018-01-10T09:12:35.454Z,12.17
2018-01-10T09:15:02.930Z,10.80
2018-01-10T09:17:30.701Z,11.27
2018-01-10T09:19:58.172Z,11.20
2018-01-10T09:22:25.633Z,11.33
2018-01-10T09:24:53.365Z,11.43
2018-01-10T09:27:20.980Z,11.27
2018-01-10T09:29:48.506Z,10.87
2018-01-10T09:32:15.956Z,11.27
2018-01-10T09:34:43.419Z,11.40
2018-01-10T09:37:10.893Z,11.07
2018-01-10T09:39:38.429Z,10.60
2018-01-10T09:42:05.906Z,10.77
2018-01-10T09:44:33.490Z,11.03
2018-01-10T09:47:00.942Z,10.63
2018-01-10T09:49:28.414Z,11.10
2018-01-10T09:51:55.952Z,10.50
2018-01-10T09:54:23.406Z,11.03
2018-01-10T09:56:50.868Z,11.07
2018-01-10T09:59:18.321Z,10.43
2018-01-10T10:01:45.784Z,10.10
2018-01-10T10:04:13.240Z,11.53
2018-01-10T10:06:40.774Z,11.37
2018-01-10T10:09:08.432Z,10.37
2018-01-10T10:11:36.891Z,10.23
2018-01-10T10:14:04.377Z,11.20
2018-01-10T10:16:31.853Z,10.30
2018-01-10T10:18:59.328Z,10.70
2018-01-10T10:21:26.821Z,10.57
2018-01-10T10:23:54.485Z,10.40
2018-01-10T10:26:21.964Z,10.53
2018-01-10T10:28:49.423Z,10.63
2018-01-10T10:31:17.148Z,10.10
2018-01-10T10:33:44.796Z,10.23
2018-01-10T10:36:12.402Z,9.67
2018-01-10T10:38:39.868Z,10.53
2018-01-10T10:41:07.567Z,9.70
2018-01-10T10:43:35.073Z,10.40
2018-01-10T10:46:02.728Z,9.63
2018-01-10T10:48:30.305Z,10.27
2018-01-10T11:09:23.471Z,10.30
2018-01-10T11:11:50.938Z,9.17
2018-01-10T11:14:18.505Z,9.83
2018-01-10T11:16:45.992Z,9.70
2018-01-10T11:19:13.558Z,9.83
2018-01-10T11:21:41.172Z,9.37
2018-01-10T11:24:08.652Z,9.67
2018-01-10T11:26:36.137Z,9.23
2018-01-10T11:29:03.654Z,10.03
2018-01-10T11:31:31.126Z,10.53
2018-01-10T11:33:58.597Z,9.77
2018-01-10T11:36:26.069Z,9.47
2018-01-10T11:38:53.699Z,9.00
2018-01-10T11:41:21.186Z,9.90
2018-01-10T11:43:48.653Z,9.63
2018-01-10T11:46:16.121Z,9.23
2018-01-10T11:48:44.494Z,9.17
2018-01-10T11:51:11.957Z,9.43
2018-01-10T11:53:39.500Z,9.43
2018-01-10T11:56:07.426Z,9.80
2018-01-10T11:58:34.873Z,9.60
2018-01-10T12:01:02.360Z,9.00
2018-01-10T12:03:29.818Z,9.17
2018-01-10T12:05:57.399Z,9.13
2018-01-10T12:08:25.174Z,9.03
2018-01-10T12:10:52.700Z,9.50
2018-01-10T12:13:20.263Z,9.37
2018-01-10T12:15:47.832Z,9.20
2018-01-10T12:18:15.302Z,9.00
2018-01-10T12:20:42.951Z,9.03
2018-01-10T12:23:10.425Z,8.73
2018-01-10T12:25:37.977Z,9.50
2018-01-10T12:28:05.433Z,8.30
2018-01-10T12:30:33.082Z,12.23
2018-01-10T12:33:00.543Z,14.20
2018-01-10T12:35:28.025Z,13.90
2018-01-10T12:37:55.483Z,14.17
2018-01-10T12:40:23.964Z,12.77
2018-01-10T12:42:51.717Z,12.00
2018-01-10T12:45:19.493Z,12.83
2018-01-10T12:47:46.958Z,11.77
2018-01-10T12:50:14.413Z,11.87
2018-01-10T12:52:42.055Z,10.77
2018-01-10T12:55:09.630Z,11.80
2018-01-10T12:57:37.109Z,10.93
2018-01-10T13:00:04.729Z,11.13
2018-01-10T13:02:32.185Z,11.57
2018-01-10T13:04:59.783Z,11.43
2018-01-10T13:07:27.415Z,11.60
2018-01-10T13:09:54.866Z,12.27
2018-01-10T13:12:22.342Z,11.87
2018-01-10T13:14:49.817Z,10.77
2018-01-10T13:17:17.284Z,12.60
2018-01-10T13:19:44.825Z,13.50
2018-01-10T13:22:12.460Z,12.97
2018-01-10T13:24:39.917Z,11.03
2018-01-10T13:27:07.430Z,11.87
2018-01-10T13:29:34.876Z,11.77
2018-01-10T13:32:02.344Z,11.77
2018-01-10T13:34:29.807Z,11.63
2018-01-10T13:36:57.274Z,11.57
2018-01-10T13:39:24.840Z,11.63
2018-01-10T13:41:52.503Z,11.73
2018-01-10T13:44:19.973Z,11.67
2018-01-10T13:46:47.482Z,11.87
2018-01-10T13:49:15.260Z,11.30
2018-01-10T13:51:42.721Z,11.90
2018-01-10T13:54:10.344Z,11.07
2018-01-10T13:56:37.800Z,11.10
2018-01-10T13:59:05.265Z,11.13
2018-01-10T14:01:32.734Z,11.67
2018-01-10T14:04:00.332Z,11.23
2018-01-10T14:06:27.926Z,11.00
2018-01-10T14:08:55.397Z,11.47
2018-01-10T14:11:22.853Z,10.40
2018-01-10T14:13:50.365Z,10.80
2018-01-10T14:16:17.817Z,11.37
2018-01-10T14:18:45.301Z,10.87
2018-01-10T14:21:12.748Z,10.80
2018-01-10T14:23:40.227Z,10.50
2018-01-10T14:26:07.696Z,10.13
2018-01-10T14:28:35.171Z,11.30
2018-01-10T14:31:02.824Z,10.40
2018-01-10T14:33:30.405Z,11.10
2018-01-10T14:35:58.045Z,10.97
2018-01-10T14:38:25.530Z,9.57
2018-01-10T14:40:53.159Z,11.33
2018-01-10T14:43:20.850Z,10.80
2018-01-10T14:45:48.631Z,10.93
2018-01-10T14:48:16.377Z,10.80
2018-01-10T14:50:43.861Z,10.73
2018-01-10T14:53:11.602Z,10.63
2018-01-10T14:55:39.398Z,10.57
2018-01-10T14:58:07.055Z,11.00
2018-01-10T15:00:34.528Z,10.23
2018-01-10T15:03:01.990Z,10.17
2018-01-10T15:05:29.474Z,10.40
2018-01-10T15:07:56.938Z,10.20
2018-01-10T15:10:24.439Z,10.97
2018-01-10T15:12:52.106Z,10.10
2018-01-10T15:15:19.583Z,10.03
2018-01-10T15:17:47.037Z,10.13
2018-01-10T15:20:14.583Z,10.37
2018-01-10T15:22:42.241Z,10.37
2018-01-10T15:25:09.809Z,9.83
2018-01-10T15:27:37.564Z,10.00
2018-01-10T15:30:05.326Z,9.27
2018-01-10T15:32:32.958Z,9.33
2018-01-10T15:35:00.484Z,9.60
2018-01-10T15:37:28.003Z,8.63
2018-01-10T15:39:55.777Z,9.63
2018-01-10T15:42:23.530Z,10.30
2018-01-10T15:44:50.990Z,10.03
2018-01-10T15:47:18.755Z,9.67
2018-01-10T15:49:46.227Z,9.83
2018-01-10T15:52:13.989Z,9.70
2018-01-10T15:54:41.584Z,9.87
2018-01-10T15:57:09.094Z,9.27
2018-01-10T15:59:36.656Z,9.00
2018-01-10T16:02:04.165Z,8.63
2018-01-10T16:04:31.908Z,8.97
2018-01-10T16:06:59.364Z,9.80
2018-01-10T16:09:26.817Z,9.47
2018-01-10T16:11:54.293Z,9.10
2018-01-10T16:14:21.775Z,9.13
2018-01-10T16:16:49.242Z,9.10
2018-01-10T16:19:16.822Z,8.73
2018-01-10T16:21:44.295Z,9.77
2018-01-10T16:24:11.760Z,8.70
2018-01-10T16:26:40.234Z,8.50
2018-01-10T16:29:07.688Z,8.93
2018-01-10T16:31:35.157Z,9.23
2018-01-10T16:34:02.815Z,9.50
2018-01-10T16:36:30.261Z,8.57
2018-01-10T16:38:58.020Z,8.63
2018-01-10T16:41:25.605Z,8.87
2018-01-10T16:43:53.364Z,9.10
2018-01-10T16:46:20.812Z,8.17
2018-01-10T16:48:49.262Z,8.13
2018-01-10T16:51:16.957Z,8.80
2018-01-10T16:53:44.730Z,8.30
2018-01-10T16:56:12.174Z,8.33
2018-01-10T16:58:39.826Z,8.43
2018-01-10T17:01:07.396Z,8.83
2018-01-10T17:03:34.869Z,9.10
2018-01-10T17:06:02.429Z,8.40
2018-01-10T17:08:30.086Z,8.30
2018-01-10T17:10:57.540Z,8.73
2018-01-10T17:13:25.006Z,8.67
2018-01-10T17:15:52.647Z,8.57
2018-01-10T17:18:20.212Z,8.50
2018-01-10T17:20:47.869Z,8.43
2018-01-10T17:23:15.394Z,8.00
2018-01-10T17:25:42.889Z,8.00
2018-01-10T17:28:10.367Z,8.73
2018-01-10T17:30:38.146Z,7.97
2018-01-10T17:33:05.790Z,8.13
2018-01-10T17:35:33.250Z,8.23
2018-01-10T17:38:00.815Z,8.23
2018-01-10T17:40:28.489Z,7.77
2018-01-10T17:42:56.033Z,7.83
2018-01-10T17:45:23.602Z,8.00
2018-01-10T17:47:51.133Z,7.77
2018-01-10T17:50:18.637Z,7.87
2018-01-10T17:52:46.181Z,7.63
2018-01-10T17:55:13.957Z,8.50
2018-01-10T17:57:41.712Z,8.20
2018-01-10T18:00:09.181Z,7.40
2018-01-10T18:02:36.799Z,7.83
2018-01-10T18:05:04.283Z,7.50
2018-01-10T18:07:31.852Z,7.80
2018-01-10T18:10:00.831Z,7.53
2018-01-10T18:12:28.547Z,7.60
2018-01-10T18:14:56.002Z,7.93
2018-01-10T18:17:23.521Z,7.27
2018-01-10T18:19:50.984Z,7.90
2018-01-10T18:22:18.447Z,7.23
2018-01-10T18:24:46.086Z,7.20
2018-01-10T18:27:13.553Z,7.03
2018-01-10T18:29:41.063Z,8.37
2018-01-10T18:32:08.615Z,7.57
2018-01-10T18:34:36.244Z,7.67
2018-01-10T18:37:03.923Z,7.73
2018-01-10T18:39:31.548Z,7.47
2018-01-10T18:41:59.214Z,7.30
2018-01-10T18:44:26.689Z,7.90
2018-01-10T18:46:54.150Z,7.80
2018-01-10T18:49:21.615Z,7.40
2018-01-10T18:51:49.099Z,7.53
2018-01-10T18:54:16.628Z,7.33
2018-01-10T18:56:44.293Z,7.63
2018-01-10T18:59:11.752Z,7.10
2018-01-10T19:01:39.222Z,7.07
2018-01-10T19:04:06.730Z,7.47
2018-01-10T19:06:34.222Z,6.90
2018-01-10T19:09:01.888Z,7.30
2018-01-10T19:11:29.348Z,7.23
2018-01-10T19:13:57.822Z,7.10
2018-01-10T19:16:25.448Z,7.13
2018-01-10T19:18:53.048Z,7.17
2018-01-10T19:21:20.497Z,6.93
2018-01-10T19:23:47.986Z,6.73
2018-01-10T19:26:15.448Z,7.30
2018-01-10T19:28:43.105Z,6.87
2018-01-10T19:31:10.572Z,7.03
2018-01-10T19:33:38.042Z,6.60
2018-01-10T19:36:05.504Z,6.50
2018-01-10T19:38:33.014Z,7.50
2018-01-10T19:41:00.641Z,6.90
2018-01-10T19:43:28.116Z,7.20
2018-01-10T19:45:55.705Z,6.70
2018-01-10T19:48:23.336Z,6.77
2018-01-10T19:50:53.275Z,7.23
2018-01-10T19:53:20.740Z,6.50
2018-01-10T19:55:48.205Z,6.90
2018-01-10T19:58:15.751Z,6.47
2018-01-10T20:00:43.381Z,6.87
2018-01-10T20:03:10.968Z,6.23
2018-01-10T20:05:38.446Z,6.77
2018-01-10T20:08:05.906Z,7.07
2018-01-10T20:10:33.549Z,6.37
2018-01-10T20:13:01.105Z,6.57
2018-01-10T20:15:28.872Z,7.03
2018-01-10T20:17:56.513Z,6.53
2018-01-10T20:20:23.985Z,6.77
2018-01-10T20:22:51.465Z,6.10
2018-01-10T20:25:18.948Z,6.63
2018-01-10T20:27:46.447Z,6.73
2018-01-10T20:30:13.916Z,6.47
2018-01-10T20:32:41.377Z,6.13
2018-01-10T20:35:08.858Z,6.37
2018-01-10T20:37:36.501Z,6.43
2018-01-10T20:40:03.976Z,6.07
2018-01-10T20:42:31.440Z,6.33
2018-01-10T20:44:59.917Z,6.73
2018-01-10T20:47:27.369Z,6.23
2018-01-10T20:49:54.843Z,6.67
2018-01-10T20:52:22.301Z,6.07
2018-01-10T20:54:49.930Z,6.03
2018-01-10T20:57:17.414Z,6.60
2018-01-10T20:59:44.869Z,14.37
2018-01-10T21:02:12.358Z,16.57
2018-01-10T21:04:39.829Z,16.47
2018-01-10T21:07:07.602Z,17.03
2018-01-10T21:09:35.064Z,15.80
2018-01-10T21:12:02.542Z,14.47
2018-01-10T21:14:30.017Z,13.93
2018-01-10T21:16:57.666Z,13.03
2018-01-10T21:19:25.130Z,13.57
2018-01-10T21:21:52.737Z,12.63
2018-01-10T21:24:20.374Z,13.23
2018-01-10T21:26:47.918Z,11.87
2018-01-10T21:29:15.684Z,11.90
2018-01-10T21:31:43.333Z,11.87
2018-01-10T21:34:10.794Z,12.33
2018-01-10T21:36:38.292Z,11.53
2018-01-10T21:39:05.736Z,11.00
2018-01-10T21:41:33.284Z,11.23
2018-01-10T21:44:00.764Z,11.60
2018-01-10T21:46:28.377Z,10.80
2018-01-10T21:48:55.841Z,11.00
2018-01-10T21:51:23.300Z,11.07
2018-01-10T21:53:50.822Z,9.90
2018-01-10T21:56:18.357Z,10.23
2018-01-10T21:58:45.833Z,10.67
2018-01-10T22:01:13.558Z,9.93
2018-01-10T22:03:41.037Z,9.67
2018-01-10T22:06:08.596Z,10.50
2018-01-10T22:08:36.164Z,9.47
2018-01-10T22:11:03.689Z,10.33
2018-01-10T22:13:31.199Z,10.03
2018-01-10T22:15:58.868Z,9.83
2018-01-10T22:18:26.364Z,9.17
2018-01-10T22:20:53.829Z,8.80
2018-01-10T22:23:21.325Z,10.37
2018-01-10T22:25:49.018Z,9.20
2018-01-10T22:28:16.478Z,9.80
2018-01-10T22:30:43.933Z,9.30
2018-01-10T22:33:11.499Z,9.13
2018-01-10T22:35:39.012Z,9.13
2018-01-10T22:38:06.577Z,8.80
2018-01-10T22:40:34.074Z,9.47
2018-01-10T22:43:01.574Z,9.40
2018-01-10T22:45:29.028Z,8.57
2018-01-10T22:47:56.816Z,9.13
2018-01-10T22:50:24.455Z,8.83
2018-01-10T22:52:52.017Z,8.87
2018-01-10T22:55:20.261Z,8.83
2018-01-10T22:57:47.730Z,8.80
2018-01-10T23:00:15.326Z,8.87
2018-01-10T23:02:42.801Z,8.43
2018-01-10T23:05:10.417Z,8.83
2018-01-10T23:07:37.873Z,9.23
2018-01-10T23:10:05.343Z,9.50
2018-01-10T23:12:32.847Z,9.40
2018-01-10T23:15:00.395Z,9.43
2018-01-10T23:17:27.945Z,8.87
2018-01-10T23:19:55.428Z,9.40
2018-01-10T23:22:23.670Z,8.97
2018-01-10T23:24:51.375Z,8.40
2018-01-10T23:27:18.836Z,8.23
2018-01-10T23:29:46.369Z,8.77
2018-01-10T23:32:14.116Z,8.00
2018-01-10T23:34:41.584Z,8.73
2018-01-10T23:37:09.197Z,8.47
2018-01-10T23:39:36.687Z,8.50
2018-01-10T23:42:04.146Z,7.47
2018-01-10T23:44:31.620Z,7.83
2018-01-10T23:46:59.164Z,8.50
2018-01-10T23:49:26.621Z,9.13
2018-01-10T23:51:54.278Z,8.93
2018-01-10T23:54:21.853Z,8.40
2018-01-10T23:56:49.509Z,8.17
2018-01-10T23:59:17.284Z,8.40
